createdAt,value
2018-02-25T07:57:08.535Z,14.98
2018-02-25T07:57:42.538Z,14.87
2018-02-25T07:58:17.511Z,15.75
2018-02-25T07:58:51.184Z,14.07
2018-02-25T07:59:24.453Z,15.50
2018-02-25T07:59:57.673Z,16.23
2018-02-25T08:00:31.208Z,17.15
2018-02-25T08:01:04.435Z,14.02
2018-02-25T08:01:37.661Z,15.60
2018-02-25T08:06:13.229Z,14.37
2018-02-25T08:10:48.001Z,14.37
2018-02-25T08:15:21.277Z,14.00
2018-02-25T08:19:57.070Z,14.40
2018-02-25T08:24:30.362Z,11.03
2018-02-25T08:29:04.782Z,14.57
2018-02-25T08:33:38.958Z,15.00
2018-02-25T08:38:12.514Z,13.53
2018-02-25T08:42:47.583Z,15.07
2018-02-25T08:47:21.032Z,13.20
2018-02-25T08:51:55.491Z,15.47
2018-02-25T08:56:29.601Z,15.27
2018-02-25T09:01:02.871Z,13.87
2018-02-25T09:05:37.506Z,15.37
2018-02-25T09:10:10.821Z,14.03
2018-02-25T09:14:45.276Z,14.20
2018-02-25T09:19:19.068Z,14.00
2018-02-25T09:23:53.109Z,14.53
2018-02-25T09:28:27.158Z,15.63
2018-02-25T09:33:00.379Z,14.00
2018-02-25T09:37:33.804Z,14.10
2018-02-25T09:42:07.094Z,14.57
2018-02-25T09:46:40.319Z,14.83
2018-02-25T09:51:14.391Z,13.50
2018-02-25T09:55:48.421Z,13.43
2018-02-25T10:00:22.452Z,14.27
2018-02-25T10:04:57.117Z,14.60
2018-02-25T10:09:30.818Z,13.83
2018-02-25T10:14:04.233Z,13.90
2018-02-25T10:18:37.560Z,13.53
2018-02-25T10:23:15.881Z,10.60
2018-02-25T10:27:50.031Z,12.20
2018-02-25T10:32:25.146Z,12.83
2018-02-25T10:36:58.527Z,12.53
2018-02-25T10:41:32.978Z,12.20
2018-02-25T10:46:06.984Z,11.67
2018-02-25T10:50:40.234Z,11.47
2018-02-25T10:55:14.285Z,11.33
2018-02-25T10:59:47.860Z,12.53
2018-02-25T11:04:21.114Z,11.43
2018-02-25T11:08:54.423Z,10.20
2018-02-25T11:13:27.778Z,11.00
2018-02-25T11:18:01.809Z,10.80
2018-02-25T11:22:35.101Z,11.50
2018-02-25T11:27:08.325Z,10.97
2018-02-25T11:31:42.438Z,9.70
2018-02-25T11:36:16.403Z,10.00
2018-02-25T11:40:49.696Z,9.43
2018-02-25T11:45:24.673Z,10.00
2018-02-25T11:49:58.115Z,10.23
2018-02-25T11:54:33.061Z,10.30
2018-02-25T11:59:06.661Z,12.63
2018-02-25T12:03:40.687Z,10.53
2018-02-25T12:08:14.328Z,9.87
2018-02-25T12:12:47.552Z,11.40
2018-02-25T12:17:21.887Z,11.40
2018-02-25T12:21:57.005Z,10.03
2018-02-25T12:26:30.450Z,10.60
2018-02-25T12:31:04.143Z,10.53
2018-02-25T12:35:37.404Z,10.03
2018-02-25T12:40:10.674Z,8.10
2018-02-25T12:44:45.692Z,9.57
2018-02-25T12:49:19.931Z,9.20
2018-02-25T12:53:53.233Z,9.87
2018-02-25T12:58:26.521Z,8.67
2018-02-25T13:02:59.755Z,8.00
2018-02-25T13:07:33.003Z,8.67
2018-02-25T13:12:07.015Z,8.27
2018-02-25T13:16:41.097Z,7.60
2018-02-25T13:21:14.373Z,7.70
2018-02-25T13:25:47.767Z,7.70
2018-02-25T13:30:21.739Z,7.20
2018-02-25T13:34:55.144Z,7.97
2018-02-25T13:39:28.572Z,7.40
2018-02-25T13:44:01.824Z,7.23
2018-02-25T13:48:35.824Z,7.60
2018-02-25T13:53:09.435Z,7.10
2018-02-25T13:57:42.731Z,6.57
2018-02-25T14:02:15.984Z,7.50
2018-02-25T14:06:50.308Z,5.93
2018-02-25T14:11:24.690Z,5.77
2018-02-25T14:15:58.704Z,6.40
2018-02-25T14:20:31.985Z,5.97
2018-02-25T14:25:06.035Z,6.30
2018-02-25T14:29:39.295Z,6.50
2018-02-25T14:34:13.336Z,6.43
2018-02-25T14:38:47.363Z,5.93
2018-02-25T14:43:21.348Z,6.87
2018-02-25T14:47:54.599Z,6.43
2018-02-25T14:52:28.603Z,5.90
2018-02-25T14:57:01.861Z,6.00
2018-02-25T15:01:35.119Z,6.60
2018-02-25T15:06:09.539Z,6.27
2018-02-25T15:10:42.892Z,5.23
2018-02-25T15:15:16.299Z,5.20
2018-02-25T15:19:51.074Z,5.70
2018-02-25T15:24:24.429Z,5.67
2018-02-25T15:28:57.652Z,4.80
2018-02-25T15:33:32.627Z,5.17
2018-02-25T15:38:05.899Z,4.97
2018-02-25T15:42:39.107Z,4.67
2018-02-25T15:47:12.375Z,4.77
2018-02-25T15:51:45.677Z,4.87
2018-02-25T15:56:18.971Z,4.43
2018-02-25T16:00:52.231Z,4.63
2018-02-25T16:05:25.475Z,4.63
2018-02-25T16:09:58.877Z,5.93
2018-02-25T16:14:32.906Z,5.90
2018-02-25T16:19:06.408Z,7.50
2018-02-25T16:23:40.503Z,6.43
2018-02-25T16:28:13.767Z,5.47
2018-02-25T16:32:47.712Z,6.20
2018-02-25T16:37:21.407Z,6.23
2018-02-25T16:41:54.738Z,6.40
2018-02-25T16:46:28.065Z,5.87
2018-02-25T16:51:01.769Z,5.43
2018-02-25T16:55:35.056Z,6.70
2018-02-25T17:00:08.361Z,5.80
2018-02-25T17:04:41.608Z,5.73
2018-02-25T17:09:16.201Z,5.60
2018-02-25T17:13:49.504Z,6.60
2018-02-25T17:18:23.543Z,6.70
2018-02-25T17:22:57.662Z,5.40
2018-02-25T17:27:31.000Z,5.67
2018-02-25T17:32:05.660Z,5.90
2018-02-25T17:36:38.952Z,5.90
2018-02-25T17:41:12.367Z,5.40
2018-02-25T17:45:45.661Z,5.83
2018-02-25T17:50:18.941Z,5.30
2018-02-25T17:54:54.313Z,7.07
2018-02-25T17:59:27.624Z,5.87
2018-02-25T18:04:00.896Z,5.70
2018-02-25T18:08:34.522Z,5.33
2018-02-25T18:13:09.677Z,5.43
2018-02-25T18:17:43.034Z,5.70
2018-02-25T18:22:16.416Z,6.50
2018-02-25T18:26:50.763Z,6.37
2018-02-25T18:31:24.052Z,5.67
2018-02-25T18:35:58.076Z,5.33
2018-02-25T18:40:32.912Z,5.33
2018-02-25T18:45:06.912Z,4.80
2018-02-25T18:49:42.118Z,5.30
2018-02-25T18:54:15.384Z,5.50
2018-02-25T18:58:48.871Z,5.57
2018-02-25T19:03:22.277Z,5.37
2018-02-25T19:07:55.656Z,5.53
2018-02-25T19:12:28.886Z,5.43
2018-02-25T19:17:02.512Z,7.20
2018-02-25T19:21:35.993Z,6.20
2018-02-25T19:26:09.564Z,6.93
2018-02-25T19:30:44.241Z,6.50
2018-02-25T19:35:19.744Z,5.43
2018-02-25T19:40:01.311Z,5.53
2018-02-25T19:44:37.204Z,5.80
2018-02-25T19:49:12.392Z,5.93
2018-02-25T19:53:46.144Z,5.27
2018-02-25T19:58:20.377Z,6.20
2018-02-25T20:02:53.786Z,6.17
2018-02-25T20:07:27.867Z,6.50
2018-02-25T20:12:01.107Z,5.70
2018-02-25T20:16:34.350Z,5.97
2018-02-25T20:21:07.625Z,5.77
2018-02-25T20:25:41.639Z,6.50
2018-02-25T20:30:14.952Z,5.37
2018-02-25T20:34:48.231Z,5.80
2018-02-25T20:39:21.605Z,5.70
2018-02-25T20:43:59.826Z,4.47
2018-02-25T20:48:33.172Z,5.33
2018-02-25T20:53:06.447Z,6.13
2018-02-25T20:57:39.838Z,5.93
2018-02-25T21:02:13.874Z,4.83
2018-02-25T21:06:47.919Z,6.10
2018-02-25T21:11:21.309Z,4.13
2018-02-25T21:15:56.065Z,5.60
2018-02-25T21:20:29.448Z,5.40
2018-02-25T21:25:03.108Z,5.03
2018-02-25T21:29:37.132Z,6.23
2018-02-25T21:34:10.992Z,6.43
2018-02-25T21:38:45.049Z,6.30
2018-02-25T21:43:19.079Z,5.30
2018-02-25T21:47:53.104Z,6.10
2018-02-25T21:52:27.141Z,6.00
2018-02-25T21:57:05.993Z,6.00
2018-02-25T22:01:44.971Z,5.93
2018-02-25T22:06:18.255Z,6.03
2018-02-25T22:10:51.533Z,6.50
2018-02-25T22:15:25.105Z,6.70
2018-02-25T22:19:58.679Z,6.73
2018-02-25T22:24:31.982Z,6.50
2018-02-25T22:29:05.244Z,6.90
2018-02-25T22:33:39.264Z,6.73
2018-02-25T22:38:12.567Z,7.37
2018-02-25T22:42:46.460Z,6.10
2018-02-25T22:47:19.704Z,6.53
2018-02-25T22:51:52.969Z,6.47
2018-02-25T22:56:26.276Z,6.33
2018-02-25T23:00:59.566Z,5.50
2018-02-25T23:05:33.588Z,6.67
2018-02-25T23:10:07.603Z,6.20
2018-02-25T23:14:40.847Z,5.67
2018-02-25T23:19:14.438Z,6.20
2018-02-25T23:23:48.492Z,4.83
2018-02-25T23:28:22.373Z,6.00
2018-02-25T23:32:56.204Z,5.17
2018-02-25T23:37:30.290Z,6.43
2018-02-25T23:42:03.507Z,5.17
2018-02-25T23:46:36.753Z,6.57
2018-02-25T23:51:10.728Z,5.80
2018-02-25T23:55:43.992Z,5.77
